sensor_id;sensor_type;location;lat;lon;timestamp;temperature;humidity
13686;DHT22;6915;48.296;8.874;2023-05-27T00:02:29;11.30;99.90
13686;DHT22;6915;48.296;8.874;2023-05-27T00:04:58;11.30;99.90
13686;DHT22;6915;48.296;8.874;2023-05-27T00:07:27;11.40;99.90
13686;DHT22;6915;48.296;8.874;2023-05-27T00:09:56;11.30;99.90
13686;DHT22;6915;48.296;8.874;2023-05-27T00:12:25;11.30;99.90
13686;DHT22;6915;48.296;8.874;2023-05-27T00:14:54;11.30;99.90
13686;DHT22;6915;48.296;8.874;2023-05-27T00:17:22;11.20;99.90
13686;DHT22;6915;48.296;8.874;2023-05-27T00:19:54;11.20;99.90
13686;DHT22;6915;48.296;8.874;2023-05-27T00:22:22;11.10;99.90
13686;DHT22;6915;48.296;8.874;2023-05-27T00:24:51;11.00;99.90
13686;DHT22;6915;48.296;8.874;2023-05-27T00:27:20;11.00;99.90
13686;DHT22;6915;48.296;8.874;2023-05-27T00:29:48;10.90;99.90
13686;DHT22;6915;48.296;8.874;2023-05-27T00:32:17;10.90;99.90
13686;DHT22;6915;48.296;8.874;2023-05-27T00:34:46;10.80;99.90
13686;DHT22;6915;48.296;8.874;2023-05-27T00:37:17;10.80;99.90
13686;DHT22;6915;48.296;8.874;2023-05-27T00:39:45;10.70;99.90
13686;DHT22;6915;48.296;8.874;2023-05-27T00:42:15;10.70;99.90
13686;DHT22;6915;48.296;8.874;2023-05-27T00:44:45;10.70;99.90
13686;DHT22;6915;48.296;8.874;2023-05-27T00:47:15;10.70;99.90
13686;DHT22;6915;48.296;8.874;2023-05-27T00:49:44;10.60;99.90
13686;DHT22;6915;48.296;8.874;2023-05-27T00:52:13;10.70;99.90
13686;DHT22;6915;48.296;8.874;2023-05-27T00:54:43;10.70;99.90
13686;DHT22;6915;48.296;8.874;2023-05-27T00:57:12;10.60;99.90
13686;DHT22;6915;48.296;8.874;2023-05-27T00:59:41;10.60;99.90
13686;DHT22;6915;48.296;8.874;2023-05-27T01:02:10;10.60;99.90
13686;DHT22;6915;48.296;8.874;2023-05-27T01:04:39;10.60;99.90
13686;DHT22;6915;48.296;8.874;2023-05-27T01:07:14;10.60;99.90
13686;DHT22;6915;48.296;8.874;2023-05-27T01:09:49;10.50;99.90
13686;DHT22;6915;48.296;8.874;2023-05-27T01:12:27;10.50;99.90
13686;DHT22;6915;48.296;8.874;2023-05-27T01:14:59;10.50;99.90
13686;DHT22;6915;48.296;8.874;2023-05-27T01:17:28;10.50;99.90
13686;DHT22;6915;48.296;8.874;2023-05-27T01:20:01;10.50;99.90
13686;DHT22;6915;48.296;8.874;2023-05-27T01:22:34;10.50;99.90
13686;DHT22;6915;48.296;8.874;2023-05-27T01:25:03;10.50;99.90
13686;DHT22;6915;48.296;8.874;2023-05-27T01:27:32;10.50;99.90
13686;DHT22;6915;48.296;8.874;2023-05-27T01:30:01;10.50;99.90
13686;DHT22;6915;48.296;8.874;2023-05-27T01:32:39;10.40;99.90
13686;DHT22;6915;48.296;8.874;2023-05-27T01:35:14;10.50;99.90
13686;DHT22;6915;48.296;8.874;2023-05-27T01:37:47;10.30;99.90
13686;DHT22;6915;48.296;8.874;2023-05-27T01:40:17;10.30;99.90
13686;DHT22;6915;48.296;8.874;2023-05-27T01:42:46;10.40;99.90
13686;DHT22;6915;48.296;8.874;2023-05-27T01:45:16;10.20;99.90
13686;DHT22;6915;48.296;8.874;2023-05-27T01:47:45;10.30;99.90
13686;DHT22;6915;48.296;8.874;2023-05-27T01:50:15;10.30;99.90
13686;DHT22;6915;48.296;8.874;2023-05-27T01:52:43;10.30;99.90
13686;DHT22;6915;48.296;8.874;2023-05-27T01:55:27;10.20;99.90
13686;DHT22;6915;48.296;8.874;2023-05-27T01:57:56;10.20;99.90
13686;DHT22;6915;48.296;8.874;2023-05-27T02:00:25;10.20;99.90
13686;DHT22;6915;48.296;8.874;2023-05-27T02:02:53;10.20;99.90
13686;DHT22;6915;48.296;8.874;2023-05-27T02:05:22;10.10;99.90
13686;DHT22;6915;48.296;8.874;2023-05-27T02:07:51;10.00;99.90
13686;DHT22;6915;48.296;8.874;2023-05-27T02:10:20;10.00;99.90
13686;DHT22;6915;48.296;8.874;2023-05-27T02:12:50;9.80;99.90
13686;DHT22;6915;48.296;8.874;2023-05-27T02:15:19;9.90;99.90
13686;DHT22;6915;48.296;8.874;2023-05-27T02:17:50;9.80;99.90
13686;DHT22;6915;48.296;8.874;2023-05-27T02:20:22;9.80;99.90
13686;DHT22;6915;48.296;8.874;2023-05-27T02:22:51;9.80;99.90
13686;DHT22;6915;48.296;8.874;2023-05-27T02:25:20;9.80;99.90
13686;DHT22;6915;48.296;8.874;2023-05-27T02:27:50;9.60;99.90
13686;DHT22;6915;48.296;8.874;2023-05-27T02:30:19;9.40;99.90
13686;DHT22;6915;48.296;8.874;2023-05-27T02:32:48;9.30;99.90
13686;DHT22;6915;48.296;8.874;2023-05-27T02:35:16;9.30;99.90
13686;DHT22;6915;48.296;8.874;2023-05-27T02:37:45;9.40;99.90
13686;DHT22;6915;48.296;8.874;2023-05-27T02:40:23;9.40;99.90
13686;DHT22;6915;48.296;8.874;2023-05-27T02:42:53;9.30;99.90
13686;DHT22;6915;48.296;8.874;2023-05-27T02:45:22;9.20;99.90
13686;DHT22;6915;48.296;8.874;2023-05-27T02:47:51;9.20;99.90
13686;DHT22;6915;48.296;8.874;2023-05-27T02:50:19;9.10;99.90
13686;DHT22;6915;48.296;8.874;2023-05-27T02:52:48;9.10;99.90
13686;DHT22;6915;48.296;8.874;2023-05-27T02:55:17;9.00;99.90
13686;DHT22;6915;48.296;8.874;2023-05-27T02:57:45;9.00;99.90
13686;DHT22;6915;48.296;8.874;2023-05-27T03:00:16;9.10;99.90
13686;DHT22;6915;48.296;8.874;2023-05-27T03:02:45;8.90;99.90
13686;DHT22;6915;48.296;8.874;2023-05-27T03:05:14;8.90;99.90
13686;DHT22;6915;48.296;8.874;2023-05-27T03:07:43;8.90;99.90
13686;DHT22;6915;48.296;8.874;2023-05-27T03:10:12;9.00;99.90
13686;DHT22;6915;48.296;8.874;2023-05-27T03:12:42;8.90;99.90
13686;DHT22;6915;48.296;8.874;2023-05-27T03:15:11;8.90;99.90
13686;DHT22;6915;48.296;8.874;2023-05-27T03:17:41;8.80;99.90
13686;DHT22;6915;48.296;8.874;2023-05-27T03:20:13;8.80;99.90
13686;DHT22;6915;48.296;8.874;2023-05-27T03:22:44;8.70;99.90
13686;DHT22;6915;48.296;8.874;2023-05-27T03:25:13;8.70;99.90
13686;DHT22;6915;48.296;8.874;2023-05-27T03:27:41;8.80;99.90
13686;DHT22;6915;48.296;8.874;2023-05-27T03:30:11;8.90;99.90
13686;DHT22;6915;48.296;8.874;2023-05-27T03:32:42;8.70;99.90
13686;DHT22;6915;48.296;8.874;2023-05-27T03:35:11;8.70;99.90
13686;DHT22;6915;48.296;8.874;2023-05-27T03:37:39;8.80;99.90
13686;DHT22;6915;48.296;8.874;2023-05-27T03:40:09;8.60;99.90
13686;DHT22;6915;48.296;8.874;2023-05-27T03:42:38;8.50;99.90
13686;DHT22;6915;48.296;8.874;2023-05-27T03:45:08;8.50;99.90
13686;DHT22;6915;48.296;8.874;2023-05-27T03:47:37;8.60;99.90
13686;DHT22;6915;48.296;8.874;2023-05-27T03:50:08;8.50;99.90
13686;DHT22;6915;48.296;8.874;2023-05-27T03:52:36;8.60;99.90
13686;DHT22;6915;48.296;8.874;2023-05-27T03:55:04;8.50;99.90
13686;DHT22;6915;48.296;8.874;2023-05-27T03:57:33;8.60;99.90
13686;DHT22;6915;48.296;8.874;2023-05-27T04:00:01;8.70;99.90
13686;DHT22;6915;48.296;8.874;2023-05-27T04:02:33;8.60;99.90
13686;DHT22;6915;48.296;8.874;2023-05-27T04:05:02;8.70;99.90
13686;DHT22;6915;48.296;8.874;2023-05-27T04:07:32;8.90;99.90
13686;DHT22;6915;48.296;8.874;2023-05-27T04:10:01;9.10;99.90
13686;DHT22;6915;48.296;8.874;2023-05-27T04:12:30;9.40;99.90
13686;DHT22;6915;48.296;8.874;2023-05-27T04:14:59;9.80;99.90
13686;DHT22;6915;48.296;8.874;2023-05-27T04:17:27;10.20;99.90
13686;DHT22;6915;48.296;8.874;2023-05-27T04:19:56;10.50;99.90
13686;DHT22;6915;48.296;8.874;2023-05-27T04:22:26;10.90;99.90
13686;DHT22;6915;48.296;8.874;2023-05-27T04:24:56;11.20;99.90
13686;DHT22;6915;48.296;8.874;2023-05-27T04:27:25;11.50;99.90
13686;DHT22;6915;48.296;8.874;2023-05-27T04:29:54;11.70;99.90
13686;DHT22;6915;48.296;8.874;2023-05-27T04:32:23;12.00;99.90
13686;DHT22;6915;48.296;8.874;2023-05-27T04:34:52;12.20;99.90
13686;DHT22;6915;48.296;8.874;2023-05-27T04:37:21;12.40;99.90
13686;DHT22;6915;48.296;8.874;2023-05-27T04:39:50;12.50;99.90
13686;DHT22;6915;48.296;8.874;2023-05-27T04:42:20;12.90;99.90
13686;DHT22;6915;48.296;8.874;2023-05-27T04:44:49;13.20;99.90
13686;DHT22;6915;48.296;8.874;2023-05-27T04:47:18;13.50;99.90
13686;DHT22;6915;48.296;8.874;2023-05-27T04:49:48;13.90;99.90
13686;DHT22;6915;48.296;8.874;2023-05-27T04:52:17;14.20;99.90
13686;DHT22;6915;48.296;8.874;2023-05-27T04:54:48;14.50;99.90
13686;DHT22;6915;48.296;8.874;2023-05-27T04:57:17;14.40;99.90
13686;DHT22;6915;48.296;8.874;2023-05-27T04:59:47;14.70;99.90
13686;DHT22;6915;48.296;8.874;2023-05-27T05:02:45;15.10;99.90
13686;DHT22;6915;48.296;8.874;2023-05-27T05:05:15;15.50;99.90
13686;DHT22;6915;48.296;8.874;2023-05-27T05:07:44;15.70;99.90
13686;DHT22;6915;48.296;8.874;2023-05-27T05:10:13;16.00;99.90
13686;DHT22;6915;48.296;8.874;2023-05-27T05:12:42;16.10;99.90
13686;DHT22;6915;48.296;8.874;2023-05-27T05:15:12;16.30;99.90
13686;DHT22;6915;48.296;8.874;2023-05-27T05:17:41;16.60;99.90
13686;DHT22;6915;48.296;8.874;2023-05-27T05:20:11;16.90;99.90
13686;DHT22;6915;48.296;8.874;2023-05-27T05:22:40;17.20;99.90
13686;DHT22;6915;48.296;8.874;2023-05-27T05:25:09;17.20;99.90
13686;DHT22;6915;48.296;8.874;2023-05-27T05:27:40;17.10;99.90
13686;DHT22;6915;48.296;8.874;2023-05-27T05:30:10;16.90;99.90
13686;DHT22;6915;48.296;8.874;2023-05-27T05:32:41;17.00;99.90
13686;DHT22;6915;48.296;8.874;2023-05-27T05:35:10;16.80;99.90
13686;DHT22;6915;48.296;8.874;2023-05-27T05:37:38;17.00;99.90
13686;DHT22;6915;48.296;8.874;2023-05-27T05:40:10;16.80;99.90
13686;DHT22;6915;48.296;8.874;2023-05-27T05:42:42;16.40;99.90
13686;DHT22;6915;48.296;8.874;2023-05-27T05:45:11;16.10;99.90
13686;DHT22;6915;48.296;8.874;2023-05-27T05:47:43;15.90;99.90
13686;DHT22;6915;48.296;8.874;2023-05-27T05:50:12;15.40;99.90
13686;DHT22;6915;48.296;8.874;2023-05-27T05:52:42;15.00;99.90
13686;DHT22;6915;48.296;8.874;2023-05-27T05:55:11;14.50;99.90
13686;DHT22;6915;48.296;8.874;2023-05-27T05:57:40;14.10;99.90
13686;DHT22;6915;48.296;8.874;2023-05-27T06:00:11;14.00;99.90
13686;DHT22;6915;48.296;8.874;2023-05-27T06:02:40;14.00;99.90
13686;DHT22;6915;48.296;8.874;2023-05-27T06:05:10;14.00;99.90
13686;DHT22;6915;48.296;8.874;2023-05-27T06:07:39;14.00;99.90
13686;DHT22;6915;48.296;8.874;2023-05-27T06:10:10;14.00;99.90
13686;DHT22;6915;48.296;8.874;2023-05-27T06:12:39;14.00;99.90
13686;DHT22;6915;48.296;8.874;2023-05-27T06:15:10;14.00;99.90
13686;DHT22;6915;48.296;8.874;2023-05-27T06:17:39;14.20;99.90
13686;DHT22;6915;48.296;8.874;2023-05-27T06:20:10;14.30;99.90
13686;DHT22;6915;48.296;8.874;2023-05-27T06:22:39;14.40;99.90
13686;DHT22;6915;48.296;8.874;2023-05-27T06:25:10;14.40;99.90
13686;DHT22;6915;48.296;8.874;2023-05-27T06:27:39;14.40;99.90
13686;DHT22;6915;48.296;8.874;2023-05-27T06:30:10;14.10;99.90
13686;DHT22;6915;48.296;8.874;2023-05-27T06:32:39;14.10;99.90
13686;DHT22;6915;48.296;8.874;2023-05-27T06:35:08;14.20;99.90
13686;DHT22;6915;48.296;8.874;2023-05-27T06:37:40;14.30;99.90
13686;DHT22;6915;48.296;8.874;2023-05-27T06:40:10;14.50;99.90
13686;DHT22;6915;48.296;8.874;2023-05-27T06:42:39;14.50;99.90
13686;DHT22;6915;48.296;8.874;2023-05-27T06:45:09;14.50;99.90
13686;DHT22;6915;48.296;8.874;2023-05-27T06:47:38;14.60;99.90
13686;DHT22;6915;48.296;8.874;2023-05-27T06:50:08;14.70;99.90
13686;DHT22;6915;48.296;8.874;2023-05-27T06:52:38;14.90;99.90
13686;DHT22;6915;48.296;8.874;2023-05-27T06:55:10;15.30;99.90
13686;DHT22;6915;48.296;8.874;2023-05-27T06:57:39;15.40;99.90
13686;DHT22;6915;48.296;8.874;2023-05-27T07:00:09;15.40;99.90
13686;DHT22;6915;48.296;8.874;2023-05-27T07:02:38;15.60;99.90
13686;DHT22;6915;48.296;8.874;2023-05-27T07:05:07;15.80;99.90
13686;DHT22;6915;48.296;8.874;2023-05-27T07:07:39;16.00;99.90
13686;DHT22;6915;48.296;8.874;2023-05-27T07:10:07;16.00;99.90
13686;DHT22;6915;48.296;8.874;2023-05-27T07:12:36;16.20;99.90
13686;DHT22;6915;48.296;8.874;2023-05-27T07:15:09;16.10;99.90
13686;DHT22;6915;48.296;8.874;2023-05-27T07:17:38;16.30;99.90
13686;DHT22;6915;48.296;8.874;2023-05-27T07:20:06;16.40;99.90
13686;DHT22;6915;48.296;8.874;2023-05-27T07:22:36;16.20;99.90
13686;DHT22;6915;48.296;8.874;2023-05-27T07:25:05;16.10;99.90
13686;DHT22;6915;48.296;8.874;2023-05-27T07:27:34;16.30;99.90
13686;DHT22;6915;48.296;8.874;2023-05-27T07:30:03;16.50;99.90
13686;DHT22;6915;48.296;8.874;2023-05-27T07:32:34;16.60;99.90
13686;DHT22;6915;48.296;8.874;2023-05-27T07:35:06;16.40;99.90
13686;DHT22;6915;48.296;8.874;2023-05-27T07:37:36;16.30;99.90
13686;DHT22;6915;48.296;8.874;2023-05-27T07:40:08;16.30;99.90
13686;DHT22;6915;48.296;8.874;2023-05-27T07:42:37;16.30;99.90
13686;DHT22;6915;48.296;8.874;2023-05-27T07:45:07;16.30;99.90
13686;DHT22;6915;48.296;8.874;2023-05-27T07:47:36;16.50;99.90
13686;DHT22;6915;48.296;8.874;2023-05-27T07:50:04;16.80;99.90
13686;DHT22;6915;48.296;8.874;2023-05-27T07:52:33;17.00;99.90
13686;DHT22;6915;48.296;8.874;2023-05-27T07:55:08;17.20;99.90
13686;DHT22;6915;48.296;8.874;2023-05-27T07:57:37;17.30;99.90
13686;DHT22;6915;48.296;8.874;2023-05-27T08:00:11;17.70;99.90
13686;DHT22;6915;48.296;8.874;2023-05-27T08:02:40;17.80;99.90
13686;DHT22;6915;48.296;8.874;2023-05-27T08:05:10;17.70;99.90
13686;DHT22;6915;48.296;8.874;2023-05-27T08:07:41;17.50;99.90
13686;DHT22;6915;48.296;8.874;2023-05-27T08:10:12;17.50;99.90
13686;DHT22;6915;48.296;8.874;2023-05-27T08:12:40;17.40;99.90
13686;DHT22;6915;48.296;8.874;2023-05-27T08:15:11;17.50;99.90
13686;DHT22;6915;48.296;8.874;2023-05-27T08:17:39;17.60;99.90
13686;DHT22;6915;48.296;8.874;2023-05-27T08:20:11;17.70;99.90
13686;DHT22;6915;48.296;8.874;2023-05-27T08:22:40;17.80;99.90
13686;DHT22;6915;48.296;8.874;2023-05-27T08:25:09;18.10;99.90
13686;DHT22;6915;48.296;8.874;2023-05-27T08:27:48;18.00;99.90
13686;DHT22;6915;48.296;8.874;2023-05-27T08:30:18;18.00;99.90
13686;DHT22;6915;48.296;8.874;2023-05-27T08:32:47;18.10;99.90
13686;DHT22;6915;48.296;8.874;2023-05-27T08:35:16;18.30;99.90
13686;DHT22;6915;48.296;8.874;2023-05-27T08:37:46;18.40;99.90
13686;DHT22;6915;48.296;8.874;2023-05-27T08:40:16;18.50;99.90
13686;DHT22;6915;48.296;8.874;2023-05-27T08:42:45;18.60;99.90
13686;DHT22;6915;48.296;8.874;2023-05-27T08:45:14;18.80;99.90
13686;DHT22;6915;48.296;8.874;2023-05-27T08:47:43;18.80;99.90
13686;DHT22;6915;48.296;8.874;2023-05-27T08:50:12;18.80;99.90
13686;DHT22;6915;48.296;8.874;2023-05-27T08:52:50;18.70;99.90
13686;DHT22;6915;48.296;8.874;2023-05-27T08:55:22;18.80;99.90
13686;DHT22;6915;48.296;8.874;2023-05-27T08:57:54;18.90;99.90
13686;DHT22;6915;48.296;8.874;2023-05-27T09:00:24;18.90;99.90
13686;DHT22;6915;48.296;8.874;2023-05-27T09:02:54;18.90;99.90
13686;DHT22;6915;48.296;8.874;2023-05-27T09:05:23;19.20;99.90
13686;DHT22;6915;48.296;8.874;2023-05-27T09:07:52;19.30;99.90
13686;DHT22;6915;48.296;8.874;2023-05-27T09:10:34;19.20;99.90
13686;DHT22;6915;48.296;8.874;2023-05-27T09:53:59;20.10;99.90
13686;DHT22;6915;48.296;8.874;2023-05-27T09:56:30;20.20;99.90
13686;DHT22;6915;48.296;8.874;2023-05-27T09:58:59;20.40;99.90
13686;DHT22;6915;48.296;8.874;2023-05-27T10:01:30;20.60;99.90
13686;DHT22;6915;48.296;8.874;2023-05-27T10:04:01;20.90;99.90
13686;DHT22;6915;48.296;8.874;2023-05-27T10:06:31;20.90;99.90
13686;DHT22;6915;48.296;8.874;2023-05-27T10:09:03;20.90;99.90
13686;DHT22;6915;48.296;8.874;2023-05-27T10:11:32;20.80;99.90
13686;DHT22;6915;48.296;8.874;2023-05-27T10:14:02;20.60;99.90
13686;DHT22;6915;48.296;8.874;2023-05-27T10:16:32;20.50;99.90
13686;DHT22;6915;48.296;8.874;2023-05-27T10:19:09;21.00;99.90
13686;DHT22;6915;48.296;8.874;2023-05-27T10:21:44;21.20;99.90
13686;DHT22;6915;48.296;8.874;2023-05-27T10:24:32;21.50;99.90
13686;DHT22;6915;48.296;8.874;2023-05-27T10:27:02;21.50;99.90
13686;DHT22;6915;48.296;8.874;2023-05-27T10:29:41;21.10;99.90
13686;DHT22;6915;48.296;8.874;2023-05-27T10:32:11;21.10;99.90
13686;DHT22;6915;48.296;8.874;2023-05-27T10:34:44;21.20;99.90
13686;DHT22;6915;48.296;8.874;2023-05-27T10:37:21;21.00;99.90
13686;DHT22;6915;48.296;8.874;2023-05-27T10:39:58;21.00;99.90
13686;DHT22;6915;48.296;8.874;2023-05-27T10:42:27;21.10;99.90
13686;DHT22;6915;48.296;8.874;2023-05-27T10:45:05;21.20;99.90
13686;DHT22;6915;48.296;8.874;2023-05-27T10:47:37;21.40;99.90
13686;DHT22;6915;48.296;8.874;2023-05-27T10:50:14;21.50;99.90
13686;DHT22;6915;48.296;8.874;2023-05-27T10:52:44;21.80;99.90
13686;DHT22;6915;48.296;8.874;2023-05-27T10:55:15;21.60;99.90
13686;DHT22;6915;48.296;8.874;2023-05-27T10:57:44;21.30;99.90
13686;DHT22;6915;48.296;8.874;2023-05-27T11:00:16;21.00;99.90
13686;DHT22;6915;48.296;8.874;2023-05-27T11:02:48;21.20;99.90
13686;DHT22;6915;48.296;8.874;2023-05-27T11:05:19;21.40;99.90
13686;DHT22;6915;48.296;8.874;2023-05-27T11:07:47;20.80;99.90
13686;DHT22;6915;48.296;8.874;2023-05-27T11:10:17;21.40;99.90
13686;DHT22;6915;48.296;8.874;2023-05-27T11:12:49;21.60;99.90
13686;DHT22;6915;48.296;8.874;2023-05-27T11:15:17;21.60;99.90
13686;DHT22;6915;48.296;8.874;2023-05-27T11:17:46;21.40;99.90
13686;DHT22;6915;48.296;8.874;2023-05-27T11:20:15;21.70;99.90
13686;DHT22;6915;48.296;8.874;2023-05-27T11:22:51;21.80;99.90
13686;DHT22;6915;48.296;8.874;2023-05-27T11:25:22;22.10;99.90
13686;DHT22;6915;48.296;8.874;2023-05-27T11:27:50;22.40;99.90
13686;DHT22;6915;48.296;8.874;2023-05-27T11:30:25;22.70;99.90
13686;DHT22;6915;48.296;8.874;2023-05-27T11:33:01;22.50;99.90
13686;DHT22;6915;48.296;8.874;2023-05-27T11:35:30;22.00;99.90
13686;DHT22;6915;48.296;8.874;2023-05-27T11:37:59;21.70;99.90
13686;DHT22;6915;48.296;8.874;2023-05-27T11:40:35;21.60;99.90
13686;DHT22;6915;48.296;8.874;2023-05-27T11:43:06;21.80;99.90
13686;DHT22;6915;48.296;8.874;2023-05-27T11:45:37;21.70;99.90
13686;DHT22;6915;48.296;8.874;2023-05-27T11:48:06;21.60;99.90
13686;DHT22;6915;48.296;8.874;2023-05-27T11:50:36;22.00;99.90
13686;DHT22;6915;48.296;8.874;2023-05-27T11:53:05;22.00;99.90
13686;DHT22;6915;48.296;8.874;2023-05-27T11:55:36;22.00;99.90
13686;DHT22;6915;48.296;8.874;2023-05-27T11:58:07;22.10;99.90
13686;DHT22;6915;48.296;8.874;2023-05-27T12:00:37;22.10;99.90
13686;DHT22;6915;48.296;8.874;2023-05-27T12:03:06;22.20;99.90
13686;DHT22;6915;48.296;8.874;2023-05-27T12:05:35;22.30;99.90
13686;DHT22;6915;48.296;8.874;2023-05-27T12:08:04;22.70;99.90
13686;DHT22;6915;48.296;8.874;2023-05-27T12:10:32;22.90;99.90
13686;DHT22;6915;48.296;8.874;2023-05-27T12:13:06;22.80;99.90
13686;DHT22;6915;48.296;8.874;2023-05-27T12:15:35;22.60;99.90
13686;DHT22;6915;48.296;8.874;2023-05-27T12:18:03;22.50;99.90
13686;DHT22;6915;48.296;8.874;2023-05-27T12:20:33;22.60;99.90
13686;DHT22;6915;48.296;8.874;2023-05-27T12:23:04;22.50;99.90
13686;DHT22;6915;48.296;8.874;2023-05-27T12:25:33;22.60;99.90
13686;DHT22;6915;48.296;8.874;2023-05-27T12:28:01;22.70;99.90
13686;DHT22;6915;48.296;8.874;2023-05-27T12:30:32;23.00;99.90
13686;DHT22;6915;48.296;8.874;2023-05-27T12:33:01;23.10;99.90
13686;DHT22;6915;48.296;8.874;2023-05-27T12:35:29;23.00;99.90
13686;DHT22;6915;48.296;8.874;2023-05-27T12:37:58;22.90;99.90
13686;DHT22;6915;48.296;8.874;2023-05-27T12:40:27;23.10;99.90
13686;DHT22;6915;48.296;8.874;2023-05-27T12:42:55;23.20;99.90
13686;DHT22;6915;48.296;8.874;2023-05-27T12:45:26;23.40;99.90
13686;DHT22;6915;48.296;8.874;2023-05-27T12:47:56;23.40;99.90
13686;DHT22;6915;48.296;8.874;2023-05-27T12:50:25;23.30;99.90
13686;DHT22;6915;48.296;8.874;2023-05-27T12:52:54;23.30;99.90
13686;DHT22;6915;48.296;8.874;2023-05-27T12:55:25;23.20;99.90
13686;DHT22;6915;48.296;8.874;2023-05-27T12:57:54;23.40;99.90
13686;DHT22;6915;48.296;8.874;2023-05-27T13:00:26;23.40;99.90
13686;DHT22;6915;48.296;8.874;2023-05-27T13:03:05;23.30;99.90
13686;DHT22;6915;48.296;8.874;2023-05-27T13:05:33;23.30;99.90
13686;DHT22;6915;48.296;8.874;2023-05-27T13:08:06;23.30;99.90
13686;DHT22;6915;48.296;8.874;2023-05-27T13:10:36;23.50;99.90
13686;DHT22;6915;48.296;8.874;2023-05-27T13:13:05;23.60;99.90
13686;DHT22;6915;48.296;8.874;2023-05-27T13:15:35;23.90;99.90
13686;DHT22;6915;48.296;8.874;2023-05-27T13:18:07;24.00;99.90
13686;DHT22;6915;48.296;8.874;2023-05-27T13:20:43;23.80;99.90
13686;DHT22;6915;48.296;8.874;2023-05-27T13:23:11;23.40;99.90
13686;DHT22;6915;48.296;8.874;2023-05-27T13:25:42;23.10;99.90
13686;DHT22;6915;48.296;8.874;2023-05-27T13:28:11;23.30;99.90
13686;DHT22;6915;48.296;8.874;2023-05-27T13:30:40;23.60;99.90
13686;DHT22;6915;48.296;8.874;2023-05-27T13:33:10;23.80;99.90
13686;DHT22;6915;48.296;8.874;2023-05-27T13:35:39;23.60;99.90
13686;DHT22;6915;48.296;8.874;2023-05-27T13:38:08;23.60;99.90
13686;DHT22;6915;48.296;8.874;2023-05-27T13:40:39;23.60;99.90
13686;DHT22;6915;48.296;8.874;2023-05-27T13:43:08;23.70;99.90
13686;DHT22;6915;48.296;8.874;2023-05-27T13:45:37;23.70;99.90
13686;DHT22;6915;48.296;8.874;2023-05-27T13:48:22;24.00;99.90
13686;DHT22;6915;48.296;8.874;2023-05-27T13:50:51;23.80;99.90
13686;DHT22;6915;48.296;8.874;2023-05-27T13:53:21;24.10;99.90
13686;DHT22;6915;48.296;8.874;2023-05-27T13:55:49;24.10;99.90
13686;DHT22;6915;48.296;8.874;2023-05-27T13:58:19;23.70;99.90
13686;DHT22;6915;48.296;8.874;2023-05-27T14:00:48;23.50;99.90
13686;DHT22;6915;48.296;8.874;2023-05-27T14:03:16;23.30;99.90
13686;DHT22;6915;48.296;8.874;2023-05-27T14:05:46;23.10;99.90
13686;DHT22;6915;48.296;8.874;2023-05-27T14:08:17;23.30;99.90
13686;DHT22;6915;48.296;8.874;2023-05-27T14:10:46;23.50;99.90
13686;DHT22;6915;48.296;8.874;2023-05-27T14:13:14;23.40;99.90
13686;DHT22;6915;48.296;8.874;2023-05-27T14:15:43;23.50;99.90
13686;DHT22;6915;48.296;8.874;2023-05-27T14:18:12;23.90;99.90
13686;DHT22;6915;48.296;8.874;2023-05-27T14:20:40;24.20;99.90
13686;DHT22;6915;48.296;8.874;2023-05-27T14:23:10;24.00;99.90
13686;DHT22;6915;48.296;8.874;2023-05-27T14:25:42;23.60;99.90
13686;DHT22;6915;48.296;8.874;2023-05-27T14:28:31;23.60;99.90
13686;DHT22;6915;48.296;8.874;2023-05-27T14:31:16;23.60;99.90
13686;DHT22;6915;48.296;8.874;2023-05-27T14:33:56;23.50;99.90
13686;DHT22;6915;48.296;8.874;2023-05-27T14:36:26;23.20;99.90
13686;DHT22;6915;48.296;8.874;2023-05-27T14:38:56;22.90;99.90
13686;DHT22;6915;48.296;8.874;2023-05-27T14:41:26;22.90;99.90
13686;DHT22;6915;48.296;8.874;2023-05-27T14:43:55;22.80;99.90
13686;DHT22;6915;48.296;8.874;2023-05-27T14:46:23;22.90;99.90
13686;DHT22;6915;48.296;8.874;2023-05-27T14:48:53;22.90;99.90
13686;DHT22;6915;48.296;8.874;2023-05-27T14:51:24;22.90;99.90
13686;DHT22;6915;48.296;8.874;2023-05-27T14:53:52;23.00;99.90
13686;DHT22;6915;48.296;8.874;2023-05-27T14:56:23;22.80;99.90
13686;DHT22;6915;48.296;8.874;2023-05-27T14:58:52;22.90;99.90
13686;DHT22;6915;48.296;8.874;2023-05-27T15:01:22;22.80;99.90
13686;DHT22;6915;48.296;8.874;2023-05-27T15:04:00;22.70;99.90
13686;DHT22;6915;48.296;8.874;2023-05-27T15:06:32;22.50;99.90
13686;DHT22;6915;48.296;8.874;2023-05-27T15:09:11;22.70;99.90
13686;DHT22;6915;48.296;8.874;2023-05-27T15:11:50;22.80;99.90
13686;DHT22;6915;48.296;8.874;2023-05-27T15:14:25;22.60;99.90
13686;DHT22;6915;48.296;8.874;2023-05-27T15:17:02;22.70;99.90
13686;DHT22;6915;48.296;8.874;2023-05-27T15:19:32;22.80;99.90
13686;DHT22;6915;48.296;8.874;2023-05-27T15:22:02;22.80;99.90
13686;DHT22;6915;48.296;8.874;2023-05-27T15:24:31;22.70;99.90
13686;DHT22;6915;48.296;8.874;2023-05-27T15:27:02;22.70;99.90
13686;DHT22;6915;48.296;8.874;2023-05-27T15:29:31;22.70;99.90
13686;DHT22;6915;48.296;8.874;2023-05-27T15:32:00;22.70;99.90
13686;DHT22;6915;48.296;8.874;2023-05-27T15:34:31;22.70;99.90
13686;DHT22;6915;48.296;8.874;2023-05-27T15:37:00;22.40;99.90
13686;DHT22;6915;48.296;8.874;2023-05-27T15:39:32;22.60;99.90
13686;DHT22;6915;48.296;8.874;2023-05-27T15:42:03;22.50;99.90
13686;DHT22;6915;48.296;8.874;2023-05-27T15:44:32;22.50;99.90
13686;DHT22;6915;48.296;8.874;2023-05-27T15:47:01;22.50;99.90
13686;DHT22;6915;48.296;8.874;2023-05-27T15:49:31;22.40;99.90
13686;DHT22;6915;48.296;8.874;2023-05-27T15:52:00;22.50;99.90
13686;DHT22;6915;48.296;8.874;2023-05-27T15:54:30;22.50;99.90
13686;DHT22;6915;48.296;8.874;2023-05-27T15:57:00;22.40;99.90
13686;DHT22;6915;48.296;8.874;2023-05-27T15:59:29;22.20;99.90
13686;DHT22;6915;48.296;8.874;2023-05-27T16:01:58;22.20;99.90
13686;DHT22;6915;48.296;8.874;2023-05-27T16:04:27;22.10;99.90
13686;DHT22;6915;48.296;8.874;2023-05-27T16:06:55;22.00;99.90
13686;DHT22;6915;48.296;8.874;2023-05-27T16:09:25;22.00;99.90
13686;DHT22;6915;48.296;8.874;2023-05-27T16:11:58;21.90;99.90
13686;DHT22;6915;48.296;8.874;2023-05-27T16:14:30;21.90;99.90
13686;DHT22;6915;48.296;8.874;2023-05-27T16:16:59;22.00;99.90
13686;DHT22;6915;48.296;8.874;2023-05-27T16:19:34;22.10;99.90
13686;DHT22;6915;48.296;8.874;2023-05-27T16:22:06;22.00;99.90
13686;DHT22;6915;48.296;8.874;2023-05-27T16:24:35;21.90;99.90
13686;DHT22;6915;48.296;8.874;2023-05-27T16:27:06;21.80;99.90
13686;DHT22;6915;48.296;8.874;2023-05-27T16:29:36;21.60;99.90
13686;DHT22;6915;48.296;8.874;2023-05-27T16:32:05;21.60;99.90
13686;DHT22;6915;48.296;8.874;2023-05-27T16:34:36;21.80;99.90
13686;DHT22;6915;48.296;8.874;2023-05-27T16:37:07;21.70;99.90
13686;DHT22;6915;48.296;8.874;2023-05-27T16:39:36;21.70;99.90
13686;DHT22;6915;48.296;8.874;2023-05-27T16:42:05;21.70;99.90
13686;DHT22;6915;48.296;8.874;2023-05-27T16:44:34;21.80;99.90
13686;DHT22;6915;48.296;8.874;2023-05-27T16:47:07;21.80;99.90
13686;DHT22;6915;48.296;8.874;2023-05-27T16:49:36;21.70;99.90